createdAt,value
2024-01-17T00:00:14.607Z,86.08
2024-01-17T00:02:42.240Z,87.10
2024-01-17T00:05:11.210Z,86.46
2024-01-17T00:07:38.582Z,86.92
2024-01-17T00:10:06.048Z,85.74
2024-01-17T00:12:34.306Z,87.10
2024-01-17T00:15:01.484Z,85.74
2024-01-17T00:17:28.676Z,86.21
2024-01-17T00:19:55.771Z,87.47
2024-01-17T00:22:22.729Z,88.08
2024-01-17T00:24:50.551Z,87.60
2024-01-17T00:27:18.471Z,86.76
2024-01-17T00:29:46.936Z,87.40
2024-01-17T00:32:15.097Z,87.62
2024-01-17T00:34:42.107Z,87.52
2024-01-17T00:37:10.594Z,87.69
2024-01-17T00:39:37.614Z,87.53
2024-01-17T00:42:04.936Z,88.47
2024-01-17T00:44:31.913Z,87.51
2024-01-17T00:46:59.017Z,88.15
2024-01-17T00:49:25.962Z,86.90
2024-01-17T00:51:52.959Z,86.48
2024-01-17T00:54:20.081Z,87.35
2024-01-17T00:56:47.100Z,87.56
2024-01-17T00:59:14.149Z,87.58
2024-01-17T01:01:41.175Z,86.47
2024-01-17T01:04:10.284Z,87.09
2024-01-17T01:06:37.385Z,87.07
2024-01-17T01:09:04.602Z,87.38
2024-01-17T01:11:34.172Z,87.47
2024-01-17T01:14:02.840Z,87.17
2024-01-17T01:16:30.183Z,87.92
2024-01-17T01:18:57.325Z,88.40
2024-01-17T01:21:24.401Z,89.69
2024-01-17T01:23:51.393Z,88.64
2024-01-17T01:26:18.469Z,88.84
2024-01-17T01:28:45.494Z,88.75
2024-01-17T01:31:12.562Z,88.91
2024-01-17T01:33:39.759Z,88.77
2024-01-17T01:36:08.044Z,87.44
2024-01-17T01:38:35.214Z,88.39
2024-01-17T01:41:02.238Z,87.94
2024-01-17T01:43:29.445Z,87.98
2024-01-17T01:46:04.946Z,88.02
2024-01-17T01:48:34.111Z,88.38
2024-01-17T01:51:01.261Z,87.62
2024-01-17T01:53:32.466Z,88.04
2024-01-17T01:56:01.469Z,87.88
2024-01-17T01:58:31.633Z,87.87
2024-01-17T02:01:01.222Z,87.67
2024-01-17T02:03:31.557Z,88.15
2024-01-17T02:05:59.260Z,87.73
2024-01-17T02:08:26.451Z,88.01
2024-01-17T02:10:54.155Z,88.52
2024-01-17T02:13:21.984Z,88.32
2024-01-17T02:15:49.286Z,87.82
2024-01-17T02:18:16.495Z,88.64
2024-01-17T02:20:44.119Z,88.58
2024-01-17T02:23:24.286Z,88.42
2024-01-17T02:25:53.265Z,87.82
2024-01-17T02:28:20.666Z,87.95
2024-01-17T02:30:48.443Z,88.21
2024-01-17T02:33:16.688Z,87.55
2024-01-17T02:35:44.218Z,88.07
2024-01-17T02:38:11.440Z,88.16
2024-01-17T02:40:39.092Z,88.88
2024-01-17T02:43:07.135Z,88.05
2024-01-17T02:45:34.761Z,88.08
2024-01-17T02:48:01.964Z,88.07
2024-01-17T02:50:29.829Z,87.67
2024-01-17T02:52:57.125Z,88.30
2024-01-17T02:55:24.733Z,87.74
2024-01-17T02:57:53.090Z,88.04
2024-01-17T03:00:21.244Z,88.23
2024-01-17T03:02:48.594Z,88.73
2024-01-17T03:05:15.913Z,87.53
2024-01-17T03:07:43.161Z,89.36
2024-01-17T03:10:13.148Z,89.27
2024-01-17T03:12:41.829Z,89.03
2024-01-17T03:15:13.235Z,88.33
2024-01-17T03:17:40.637Z,88.30
2024-01-17T03:20:12.594Z,96.66
2024-01-17T03:22:41.566Z,89.04
2024-01-17T03:25:09.618Z,88.91
2024-01-17T03:27:37.021Z,88.32
2024-01-17T03:30:08.822Z,88.65
2024-01-17T03:32:36.066Z,88.94
2024-01-17T03:35:03.804Z,89.07
2024-01-17T03:37:30.760Z,89.20
2024-01-17T03:39:58.672Z,89.44
2024-01-17T03:42:25.660Z,88.97
2024-01-17T03:44:52.765Z,88.45
2024-01-17T03:47:19.813Z,89.14
2024-01-17T03:49:46.934Z,88.87
2024-01-17T03:52:14.030Z,89.15
2024-01-17T03:54:41.567Z,89.04
2024-01-17T03:57:10.175Z,89.72
2024-01-17T03:59:37.289Z,89.42
2024-01-17T04:02:04.560Z,89.60
2024-01-17T04:04:31.547Z,90.32
2024-01-17T04:06:58.514Z,90.33
2024-01-17T04:09:26.219Z,90.01
2024-01-17T04:11:53.706Z,90.61
2024-01-17T04:14:20.724Z,89.08
2024-01-17T04:16:47.719Z,89.37
2024-01-17T04:19:15.183Z,89.13
2024-01-17T04:21:42.215Z,89.71
2024-01-17T04:24:09.499Z,89.31
2024-01-17T04:26:36.841Z,89.77
2024-01-17T04:29:03.999Z,90.47
2024-01-17T04:31:32.541Z,90.16
2024-01-17T04:34:04.587Z,90.46
2024-01-17T04:36:32.601Z,90.19
2024-01-17T04:39:02.160Z,89.97
2024-01-17T04:41:29.406Z,89.66
2024-01-17T04:43:57.094Z,89.80
2024-01-17T04:46:24.195Z,89.81
2024-01-17T04:48:51.577Z,89.68
2024-01-17T04:51:24.539Z,89.66
2024-01-17T04:53:51.660Z,89.80
2024-01-17T04:56:18.732Z,88.62
2024-01-17T04:58:46.090Z,88.96
2024-01-17T05:01:13.275Z,89.90
2024-01-17T05:03:44.362Z,90.03
2024-01-17T05:06:11.640Z,88.95
2024-01-17T05:08:38.754Z,89.02
2024-01-17T05:11:05.724Z,89.90
2024-01-17T05:13:32.714Z,88.70
2024-01-17T05:15:59.952Z,89.79
2024-01-17T05:18:27.079Z,89.85
2024-01-17T05:20:54.198Z,89.37
2024-01-17T05:23:21.253Z,90.01
2024-01-17T05:25:48.150Z,91.22
2024-01-17T05:28:15.117Z,90.73
2024-01-17T05:30:42.224Z,90.85
2024-01-17T05:33:09.356Z,91.53
2024-01-17T05:35:36.476Z,90.84
2024-01-17T05:38:03.608Z,90.17
2024-01-17T05:40:30.821Z,91.06
2024-01-17T05:42:58.320Z,90.51
2024-01-17T05:45:25.483Z,90.22
2024-01-17T05:47:52.528Z,90.46
2024-01-17T05:50:19.816Z,90.38
2024-01-17T05:52:52.727Z,90.84
2024-01-17T05:55:21.677Z,90.42
2024-01-17T05:57:48.971Z,90.38
2024-01-17T06:00:16.401Z,90.38
2024-01-17T06:02:44.677Z,90.53
2024-01-17T06:05:17.420Z,90.15
2024-01-17T06:07:46.022Z,90.43
2024-01-17T06:10:15.153Z,90.29
2024-01-17T06:12:44.700Z,90.77
2024-01-17T06:15:13.465Z,90.46
2024-01-17T06:17:40.691Z,90.54
2024-01-17T06:20:11.533Z,91.02
2024-01-17T06:22:39.604Z,90.64
2024-01-17T06:25:08.408Z,90.88
2024-01-17T06:27:35.918Z,91.04
2024-01-17T06:30:03.187Z,91.34
2024-01-17T06:32:30.314Z,91.33
2024-01-17T06:34:57.425Z,91.23
2024-01-17T06:37:24.410Z,90.92
2024-01-17T06:39:51.387Z,91.25
2024-01-17T06:42:18.849Z,90.78
2024-01-17T06:44:46.844Z,91.20
2024-01-17T06:47:13.896Z,91.23
2024-01-17T06:49:42.878Z,91.20
2024-01-17T06:52:10.075Z,91.50
2024-01-17T06:54:37.287Z,91.71
2024-01-17T06:57:04.608Z,91.29
2024-01-17T06:59:31.667Z,90.84
2024-01-17T07:01:58.671Z,90.86
2024-01-17T07:04:25.681Z,90.78
2024-01-17T07:06:52.758Z,91.40
2024-01-17T07:09:19.816Z,91.23
2024-01-17T07:11:46.855Z,91.67
2024-01-17T07:14:13.886Z,92.30
2024-01-17T07:16:40.840Z,91.08
2024-01-17T07:19:08.489Z,90.83
2024-01-17T07:21:38.081Z,91.00
2024-01-17T07:24:05.256Z,92.47
2024-01-17T07:26:32.360Z,93.16
2024-01-17T07:28:59.278Z,91.53
2024-01-17T07:31:26.245Z,91.34
2024-01-17T07:33:54.572Z,91.58
2024-01-17T07:36:21.671Z,90.52
2024-01-17T07:38:50.134Z,89.31
2024-01-17T07:41:17.203Z,90.83
2024-01-17T07:43:45.089Z,90.32
2024-01-17T07:46:14.338Z,90.05
2024-01-17T07:48:44.414Z,90.60
2024-01-17T07:51:12.659Z,90.76
2024-01-17T07:53:40.198Z,91.07
2024-01-17T07:56:07.212Z,90.93
2024-01-17T07:58:34.138Z,90.93
2024-01-17T08:01:01.380Z,91.10
2024-01-17T08:03:31.213Z,90.02
2024-01-17T08:05:58.989Z,90.88
2024-01-17T08:08:26.013Z,90.72
2024-01-17T08:10:53.752Z,90.83
2024-01-17T08:13:21.005Z,90.89
2024-01-17T08:15:48.573Z,91.20
2024-01-17T08:18:15.740Z,90.81
2024-01-17T08:20:42.995Z,91.17
2024-01-17T08:23:09.979Z,91.02
2024-01-17T08:25:37.366Z,90.66
2024-01-17T08:28:04.819Z,90.60
2024-01-17T08:30:31.941Z,91.23
2024-01-17T08:32:58.985Z,90.70
2024-01-17T08:35:26.048Z,90.33
2024-01-17T08:37:53.060Z,90.31
2024-01-17T08:40:20.035Z,90.72
2024-01-17T08:42:47.104Z,91.03
2024-01-17T08:45:14.686Z,90.64
2024-01-17T08:47:43.784Z,90.71
2024-01-17T08:50:14.399Z,91.02
2024-01-17T08:52:41.846Z,90.56
2024-01-17T08:55:11.411Z,90.71
2024-01-17T08:57:39.808Z,91.42
2024-01-17T09:00:08.023Z,91.01
2024-01-17T09:02:35.719Z,90.66
2024-01-17T09:05:04.296Z,90.38
2024-01-17T09:07:33.560Z,90.82
2024-01-17T09:10:01.238Z,90.78
2024-01-17T09:12:28.396Z,89.88
2024-01-17T09:14:56.775Z,90.43
2024-01-17T09:17:23.947Z,90.60
2024-01-17T09:19:50.968Z,90.61
2024-01-17T09:22:17.920Z,90.96
2024-01-17T09:24:44.940Z,91.04
2024-01-17T09:27:12.137Z,90.70
2024-01-17T09:29:39.326Z,90.98
2024-01-17T09:32:07.530Z,90.80
2024-01-17T09:34:34.669Z,90.29
2024-01-17T09:37:06.837Z,90.64
2024-01-17T09:39:40.554Z,90.14
2024-01-17T09:42:08.617Z,90.11
2024-01-17T09:44:38.977Z,90.65
2024-01-17T09:47:09.310Z,91.01
2024-01-17T09:49:41.281Z,91.10
2024-01-17T09:52:09.470Z,91.35
2024-01-17T09:54:45.326Z,91.45
2024-01-17T09:57:24.470Z,94.40
2024-01-17T10:00:00.180Z,91.82
2024-01-17T10:02:32.200Z,92.84
2024-01-17T10:05:00.966Z,92.20
2024-01-17T10:07:27.928Z,92.55
2024-01-17T10:09:54.940Z,94.26
2024-01-17T10:12:22.018Z,93.46
2024-01-17T10:14:49.206Z,91.81
2024-01-17T10:17:16.178Z,92.53
2024-01-17T10:19:43.432Z,90.45
2024-01-17T10:22:12.011Z,92.76
2024-01-17T10:24:42.675Z,91.01
2024-01-17T10:27:10.949Z,91.01
2024-01-17T10:29:41.778Z,90.21
2024-01-17T10:32:10.454Z,91.38
2024-01-17T10:34:40.703Z,91.42
2024-01-17T10:37:11.578Z,90.99
2024-01-17T10:39:38.534Z,90.89
2024-01-17T10:42:07.409Z,90.76
2024-01-17T10:44:34.536Z,90.27
2024-01-17T10:47:02.278Z,89.21
2024-01-17T10:49:29.270Z,89.08
2024-01-17T10:52:07.073Z,88.58
2024-01-17T10:55:06.107Z,88.59
2024-01-17T10:57:38.485Z,88.63
2024-01-17T11:00:12.673Z,88.86
2024-01-17T11:02:42.714Z,88.30
2024-01-17T11:05:12.809Z,88.47
2024-01-17T11:07:42.778Z,88.53
2024-01-17T11:10:11.096Z,89.28
2024-01-17T11:12:39.518Z,89.03
2024-01-17T11:15:08.837Z,88.83
2024-01-17T11:17:38.275Z,89.45
2024-01-17T11:20:10.397Z,89.42
2024-01-17T11:22:40.161Z,90.43
2024-01-17T11:25:57.733Z,90.03
2024-01-17T11:28:42.309Z,90.88
2024-01-17T11:31:18.560Z,90.99
2024-01-17T11:33:47.603Z,91.29
2024-01-17T11:36:48.765Z,90.47
2024-01-17T11:39:20.419Z,91.43
2024-01-17T11:41:51.753Z,90.42
2024-01-17T11:44:20.935Z,90.95
2024-01-17T11:46:55.132Z,90.76
2024-01-17T11:49:43.621Z,91.57
2024-01-17T11:52:37.222Z,91.38
2024-01-17T11:55:06.504Z,91.37
2024-01-17T11:57:37.114Z,91.89
2024-01-17T12:00:06.565Z,92.60
2024-01-17T12:02:45.874Z,91.84
2024-01-17T12:05:13.759Z,91.80
2024-01-17T12:07:49.059Z,91.58
2024-01-17T12:10:16.295Z,91.08
2024-01-17T12:12:45.009Z,91.82
2024-01-17T12:15:14.716Z,91.67
2024-01-17T12:17:46.148Z,90.50
2024-01-17T12:20:13.674Z,90.94
2024-01-17T12:22:40.833Z,90.33
2024-01-17T12:25:09.436Z,90.39
2024-01-17T12:27:36.408Z,91.16
2024-01-17T12:30:08.688Z,89.13
2024-01-17T12:32:36.698Z,90.41
2024-01-17T12:35:05.008Z,90.68
2024-01-17T12:37:32.346Z,91.08
2024-01-17T12:39:59.448Z,91.42
2024-01-17T12:42:26.623Z,91.08
2024-01-17T12:44:54.543Z,90.67
2024-01-17T12:47:21.872Z,91.06
2024-01-17T12:49:48.918Z,90.59
2024-01-17T12:52:19.792Z,91.00
2024-01-17T12:54:47.888Z,90.87
2024-01-17T12:57:15.364Z,90.65
2024-01-17T12:59:43.438Z,90.45
2024-01-17T13:02:16.471Z,90.73
2024-01-17T13:05:13.405Z,89.82
2024-01-17T13:07:42.451Z,90.00
2024-01-17T13:10:20.540Z,90.81
2024-01-17T13:12:49.039Z,90.18
2024-01-17T13:15:16.602Z,89.72
2024-01-17T13:17:49.889Z,90.72
2024-01-17T13:20:23.821Z,89.65
2024-01-17T13:22:55.076Z,90.48
2024-01-17T13:25:26.004Z,91.03
2024-01-17T13:28:04.411Z,91.14
2024-01-17T13:30:38.686Z,91.16
2024-01-17T13:33:07.977Z,90.98
2024-01-17T13:35:42.064Z,90.49
2024-01-17T13:38:09.234Z,90.63
2024-01-17T13:40:38.320Z,90.88
2024-01-17T13:43:06.379Z,90.74
2024-01-17T13:45:34.501Z,90.96
2024-01-17T13:48:03.310Z,91.21
2024-01-17T13:50:30.497Z,91.76
2024-01-17T13:53:08.932Z,91.54
2024-01-17T13:55:36.308Z,92.25
2024-01-17T13:58:03.320Z,92.07
2024-01-17T14:00:30.943Z,91.61
2024-01-17T14:03:02.314Z,92.64
2024-01-17T14:05:30.601Z,92.23
2024-01-17T14:07:58.407Z,91.92
2024-01-17T14:10:25.702Z,91.91
2024-01-17T14:12:52.917Z,91.86
2024-01-17T14:15:21.189Z,92.51
2024-01-17T14:17:51.278Z,92.32
2024-01-17T14:20:18.545Z,91.97
2024-01-17T14:22:50.065Z,92.47
2024-01-17T14:25:17.372Z,92.50
2024-01-17T14:27:46.149Z,91.82
2024-01-17T14:30:15.114Z,91.78
2024-01-17T14:32:43.675Z,91.99
2024-01-17T14:35:12.827Z,91.19
2024-01-17T14:37:43.514Z,91.32
2024-01-17T14:40:11.310Z,91.20
2024-01-17T14:42:40.118Z,91.30
2024-01-17T14:45:12.833Z,90.49
2024-01-17T14:47:40.916Z,90.42
2024-01-17T14:50:09.046Z,91.25
2024-01-17T14:52:36.119Z,91.18
2024-01-17T14:55:03.194Z,90.71
2024-01-17T14:57:30.154Z,91.35
2024-01-17T14:59:57.187Z,91.57
2024-01-17T15:02:24.276Z,91.19
2024-01-17T15:04:51.825Z,90.63
2024-01-17T15:07:18.768Z,91.43
2024-01-17T15:12:15.538Z,91.34
2024-01-17T15:14:44.395Z,93.05
2024-01-17T15:17:11.496Z,92.82
2024-01-17T15:19:40.062Z,92.86
2024-01-17T15:22:07.186Z,92.94
2024-01-17T15:24:34.356Z,92.82
2024-01-17T15:27:01.436Z,92.68
2024-01-17T15:29:28.665Z,92.59
2024-01-17T15:31:55.643Z,92.53
2024-01-17T15:34:22.708Z,91.67
2024-01-17T15:36:51.065Z,91.13
2024-01-17T15:39:21.188Z,91.08
2024-01-17T15:41:48.602Z,91.59
2024-01-17T15:44:15.610Z,92.36
2024-01-17T15:46:42.560Z,93.10
2024-01-17T15:49:12.849Z,91.88
2024-01-17T15:51:39.865Z,93.54
2024-01-17T15:54:06.908Z,93.34
2024-01-17T15:56:36.363Z,94.18
2024-01-17T15:59:04.887Z,94.16
2024-01-17T16:01:31.901Z,94.32
2024-01-17T16:03:59.185Z,94.23
2024-01-17T16:06:26.256Z,94.17
2024-01-17T16:08:53.915Z,94.66
2024-01-17T16:11:22.374Z,95.57
2024-01-17T16:13:49.476Z,94.73
2024-01-17T16:16:19.040Z,94.18
2024-01-17T16:18:49.241Z,94.81
2024-01-17T16:21:16.602Z,95.09
2024-01-17T16:23:46.810Z,95.12
2024-01-17T16:26:14.310Z,94.87
2024-01-17T16:28:41.261Z,94.77
2024-01-17T16:31:11.895Z,94.53
2024-01-17T16:33:39.557Z,94.30
2024-01-17T16:36:07.541Z,94.45
2024-01-17T16:38:35.011Z,94.37
2024-01-17T16:41:01.963Z,93.43
2024-01-17T16:43:28.990Z,93.50
2024-01-17T16:45:59.010Z,93.04
2024-01-17T16:48:26.450Z,93.74
2024-01-17T16:50:53.500Z,93.82
2024-01-17T16:53:23.617Z,93.44
2024-01-17T16:55:50.662Z,93.49
2024-01-17T16:58:17.709Z,93.39
2024-01-17T17:00:44.720Z,93.72
2024-01-17T17:03:11.785Z,92.54
2024-01-17T17:05:39.665Z,93.84
2024-01-17T17:08:07.111Z,94.01
2024-01-17T17:10:34.189Z,93.81
2024-01-17T17:13:01.158Z,93.04
2024-01-17T17:15:28.279Z,93.89
2024-01-17T17:17:55.971Z,92.96
2024-01-17T17:20:25.919Z,92.60
2024-01-17T17:22:54.311Z,93.61
2024-01-17T17:25:21.328Z,93.57
2024-01-17T17:27:48.479Z,94.01
2024-01-17T17:30:17.108Z,94.46
2024-01-17T17:32:45.486Z,94.87
2024-01-17T17:35:12.754Z,94.70
2024-01-17T17:37:39.738Z,94.83
2024-01-17T17:40:07.828Z,95.26
2024-01-17T17:42:34.907Z,95.52
2024-01-17T17:45:02.206Z,95.08
2024-01-17T17:47:29.300Z,95.42
2024-01-17T17:49:56.575Z,95.47
2024-01-17T17:52:23.699Z,96.08
2024-01-17T17:54:50.697Z,95.89
2024-01-17T17:57:17.840Z,96.63
2024-01-17T17:59:46.154Z,95.46
2024-01-17T18:02:13.791Z,96.77
2024-01-17T18:04:41.311Z,95.61
2024-01-17T18:07:09.623Z,96.76
2024-01-17T18:09:36.995Z,96.48
2024-01-17T18:12:04.362Z,96.01
2024-01-17T18:14:31.410Z,96.68
2024-01-17T18:16:58.996Z,95.88
2024-01-17T18:19:25.955Z,95.36
2024-01-17T18:21:53.235Z,96.84
2024-01-17T18:24:20.281Z,96.17
2024-01-17T18:26:48.593Z,95.92
2024-01-17T18:29:15.704Z,95.22
2024-01-17T18:31:42.764Z,95.00
2024-01-17T18:34:11.217Z,95.91
2024-01-17T18:36:38.579Z,95.76
2024-01-17T18:39:05.711Z,95.07
2024-01-17T18:41:32.718Z,95.77
2024-01-17T18:43:59.810Z,94.97
2024-01-17T18:46:27.017Z,94.10
2024-01-17T18:48:54.125Z,94.94
2024-01-17T18:51:21.220Z,94.20
2024-01-17T18:53:49.588Z,94.64
2024-01-17T18:56:16.836Z,94.90
2024-01-17T18:58:43.990Z,96.25
2024-01-17T19:01:11.081Z,96.33
2024-01-17T19:03:38.257Z,95.68
2024-01-17T19:06:05.587Z,94.70
2024-01-17T19:08:32.643Z,94.30
2024-01-17T19:10:59.637Z,95.13
2024-01-17T19:13:26.650Z,94.56
2024-01-17T19:15:53.648Z,95.09
2024-01-17T19:18:20.654Z,95.26
2024-01-17T19:20:50.542Z,94.85
2024-01-17T19:23:17.522Z,95.83
2024-01-17T19:25:44.472Z,96.38
2024-01-17T19:28:11.423Z,96.38
2024-01-17T19:30:39.214Z,96.36
2024-01-17T19:33:07.564Z,96.32
2024-01-17T19:35:34.679Z,96.20
2024-01-17T19:38:02.388Z,96.87
2024-01-17T19:40:31.792Z,96.91
2024-01-17T19:43:00.518Z,96.69
2024-01-17T19:45:27.707Z,96.67
2024-01-17T19:47:55.230Z,96.18
2024-01-17T19:50:22.454Z,96.62
2024-01-17T19:52:49.649Z,97.19
2024-01-17T19:55:18.371Z,96.81
2024-01-17T19:57:46.358Z,95.31
2024-01-17T20:00:30.266Z,94.94
2024-01-17T20:02:58.283Z,94.60
2024-01-17T20:05:27.220Z,97.13
2024-01-17T20:07:55.350Z,97.56
2024-01-17T20:10:23.436Z,96.87
2024-01-17T20:12:51.029Z,96.55
2024-01-17T20:15:18.303Z,96.29
2024-01-17T20:17:45.450Z,96.22
2024-01-17T20:20:12.786Z,96.49
2024-01-17T20:22:39.801Z,97.45
2024-01-17T20:25:09.533Z,97.19
2024-01-17T20:27:37.263Z,96.93
2024-01-17T20:30:04.876Z,96.78
2024-01-17T20:32:31.924Z,96.21
2024-01-17T20:34:58.988Z,96.53
2024-01-17T20:37:26.030Z,96.70
2024-01-17T20:39:53.115Z,97.10
2024-01-17T20:42:20.129Z,96.96
2024-01-17T20:44:47.364Z,97.09
2024-01-17T20:47:14.442Z,96.68
2024-01-17T20:49:41.463Z,96.69
2024-01-17T20:52:08.813Z,96.45
2024-01-17T20:54:39.378Z,96.98
2024-01-17T20:57:31.432Z,96.87
2024-01-17T21:00:00.076Z,95.91
2024-01-17T21:02:27.490Z,95.20
2024-01-17T21:04:54.533Z,95.29
2024-01-17T21:07:24.477Z,94.69
2024-01-17T21:09:52.805Z,96.18
2024-01-17T21:12:19.968Z,94.84
2024-01-17T21:14:47.086Z,96.68
2024-01-17T21:17:14.203Z,95.85
2024-01-17T21:19:41.825Z,96.61
2024-01-17T21:22:08.884Z,95.13
2024-01-17T21:24:35.932Z,95.62
2024-01-17T21:27:02.926Z,94.22
2024-01-17T21:29:29.998Z,94.84
2024-01-17T21:31:57.070Z,95.21
2024-01-17T21:34:24.500Z,94.81
2024-01-17T21:36:53.097Z,95.14
2024-01-17T21:39:21.008Z,96.11
2024-01-17T21:41:48.136Z,97.59
2024-01-17T21:44:15.306Z,98.07
2024-01-17T21:46:43.034Z,98.48
2024-01-17T21:49:10.227Z,99.13
2024-01-17T21:51:39.915Z,98.79
2024-01-17T21:54:07.471Z,98.50
2024-01-17T21:56:34.748Z,98.58
2024-01-17T21:59:01.852Z,98.49
2024-01-17T22:01:28.980Z,98.03
2024-01-17T22:03:56.570Z,98.20
2024-01-17T22:06:24.635Z,98.82
2024-01-17T22:08:55.647Z,98.75
2024-01-17T22:11:26.482Z,99.57
2024-01-17T22:13:53.655Z,97.84
2024-01-17T22:16:20.692Z,97.33
2024-01-17T22:18:47.828Z,97.99
2024-01-17T22:21:14.910Z,98.27
2024-01-17T22:23:42.101Z,98.54
2024-01-17T22:26:09.638Z,99.01
2024-01-17T22:28:36.703Z,98.16
2024-01-17T22:31:05.785Z,98.48
2024-01-17T22:33:33.109Z,97.82
2024-01-17T22:36:00.368Z,97.30
2024-01-17T22:38:27.494Z,98.16
2024-01-17T22:40:54.511Z,98.90
2024-01-17T22:43:21.585Z,98.12
2024-01-17T22:45:48.654Z,97.46
2024-01-17T22:48:15.791Z,96.39
2024-01-17T22:50:42.823Z,97.97
2024-01-17T22:53:10.714Z,98.32
2024-01-17T22:55:37.838Z,97.92
2024-01-17T22:58:05.464Z,97.69
2024-01-17T23:00:32.985Z,97.27
2024-01-17T23:03:00.249Z,96.93
2024-01-17T23:05:27.372Z,97.33
2024-01-17T23:08:01.567Z,96.77
2024-01-17T23:10:33.007Z,96.92
2024-01-17T23:13:00.274Z,97.21
2024-01-17T23:15:27.581Z,97.39
2024-01-17T23:17:55.037Z,97.14
2024-01-17T23:20:22.176Z,97.01
2024-01-17T23:22:49.202Z,96.66
2024-01-17T23:25:16.498Z,96.72
2024-01-17T23:27:43.549Z,96.46
2024-01-17T23:30:11.265Z,96.42
2024-01-17T23:32:38.352Z,96.56
2024-01-17T23:35:06.760Z,96.71
2024-01-17T23:37:33.781Z,96.46
2024-01-17T23:40:00.845Z,96.05
2024-01-17T23:42:27.895Z,96.25
2024-01-17T23:44:54.935Z,96.86
2024-01-17T23:47:23.434Z,96.12
2024-01-17T23:49:50.769Z,96.35
2024-01-17T23:52:17.833Z,95.81
2024-01-17T23:54:44.887Z,96.32
2024-01-17T23:57:12.268Z,95.82
2024-01-17T23:59:39.377Z,96.04
